createdAt,value
2022-08-25T00:01:14.383Z,3.00
2022-08-25T00:03:42.977Z,6.50
2022-08-25T00:06:12.159Z,6.68
2022-08-25T00:08:40.400Z,10.25
2022-08-25T00:11:09.438Z,7.22
2022-08-25T00:13:37.600Z,2.92
2022-08-25T00:16:05.691Z,5.70
2022-08-25T00:18:33.843Z,4.47
2022-08-25T00:21:01.638Z,3.92
2022-08-25T00:23:29.515Z,5.07
2022-08-25T00:25:57.401Z,10.38
2022-08-25T00:28:25.350Z,8.50
2022-08-25T00:30:53.130Z,4.38
2022-08-25T00:33:20.937Z,5.30
2022-08-25T00:35:48.724Z,8.48
2022-08-25T00:38:16.755Z,10.95
2022-08-25T00:40:44.529Z,7.65
2022-08-25T00:43:12.789Z,8.95
2022-08-25T00:45:40.693Z,7.88
2022-08-25T00:48:08.181Z,6.00
2022-08-25T00:50:35.796Z,13.98
2022-08-25T00:53:05.998Z,4.50
2022-08-25T00:55:39.320Z,12.43
2022-08-25T00:58:16.213Z,4.05
2022-08-25T01:00:46.199Z,6.88
2022-08-25T01:03:14.032Z,6.07
2022-08-25T01:05:42.885Z,9.70
2022-08-25T01:08:11.108Z,8.55
2022-08-25T01:10:43.417Z,7.65
2022-08-25T01:13:18.224Z,9.85
2022-08-25T01:15:47.037Z,10.93
2022-08-25T01:18:15.225Z,5.32
2022-08-25T01:20:43.336Z,9.98
2022-08-25T01:23:10.864Z,9.57
2022-08-25T01:25:47.490Z,8.68
2022-08-25T01:28:15.444Z,7.15
2022-08-25T01:30:43.110Z,9.40
2022-08-25T01:33:11.863Z,11.27
2022-08-25T01:35:40.313Z,10.57
2022-08-25T01:38:08.756Z,3.85
2022-08-25T01:40:37.473Z,5.53
2022-08-25T01:43:07.968Z,6.47
2022-08-25T01:45:35.930Z,19.98
2022-08-25T01:48:04.062Z,6.80
2022-08-25T01:50:31.732Z,10.70
2022-08-25T01:53:08.659Z,7.60
2022-08-25T01:55:51.844Z,6.43
2022-08-25T01:58:21.468Z,10.55
2022-08-25T02:00:49.994Z,5.90
2022-08-25T02:03:20.997Z,7.20
2022-08-25T02:05:48.851Z,8.65
2022-08-25T02:08:17.849Z,7.80
2022-08-25T02:10:46.531Z,8.88
2022-08-25T02:13:14.345Z,5.93
2022-08-25T02:15:46.832Z,7.88
2022-08-25T02:18:14.504Z,7.50
2022-08-25T02:20:41.985Z,9.65
2022-08-25T02:23:10.322Z,9.73
2022-08-25T02:25:41.117Z,6.20
2022-08-25T02:28:09.342Z,7.72
2022-08-25T02:30:37.894Z,4.03
2022-08-25T02:33:05.474Z,8.27
2022-08-25T02:35:33.028Z,8.95
2022-08-25T02:38:00.594Z,6.78
2022-08-25T02:40:28.222Z,2.85
2022-08-25T02:42:55.734Z,8.48
2022-08-25T02:45:23.278Z,5.32
2022-08-25T02:47:50.829Z,4.15
2022-08-25T02:50:18.294Z,6.35
2022-08-25T02:52:45.868Z,10.60
2022-08-25T02:55:14.404Z,6.88
2022-08-25T02:57:42.391Z,5.43
2022-08-25T03:00:11.481Z,9.02
2022-08-25T03:02:41.563Z,5.95
2022-08-25T03:05:10.109Z,2.55
2022-08-25T03:07:38.571Z,8.23
2022-08-25T03:10:09.413Z,5.00
2022-08-25T03:12:36.924Z,5.43
2022-08-25T03:15:05.250Z,5.55
2022-08-25T03:20:08.044Z,4.43
2022-08-25T03:22:35.530Z,2.70
2022-08-25T03:25:24.121Z,2.22
2022-08-25T03:27:52.071Z,2.20
2022-08-25T03:30:20.025Z,8.75
2022-08-25T03:32:47.644Z,3.28
2022-08-25T03:35:15.222Z,2.10
2022-08-25T03:37:42.727Z,3.80
2022-08-25T03:40:13.726Z,3.85
2022-08-25T03:42:46.897Z,3.20
2022-08-25T03:45:16.617Z,4.32
2022-08-25T03:47:46.484Z,5.43
2022-08-25T03:50:14.863Z,5.18
2022-08-25T03:52:42.836Z,4.72
2022-08-25T03:55:12.134Z,2.13
2022-08-25T03:57:39.732Z,6.55
2022-08-25T04:00:08.852Z,7.55
2022-08-25T04:02:39.973Z,3.72
2022-08-25T04:05:08.124Z,7.68
2022-08-25T04:07:36.337Z,4.40
2022-08-25T04:10:04.726Z,9.07
2022-08-25T04:12:32.207Z,4.55
2022-08-25T04:14:59.922Z,3.28
2022-08-25T04:17:27.456Z,4.28
2022-08-25T04:19:55.055Z,5.03
2022-08-25T04:22:22.670Z,3.90
2022-08-25T04:24:50.635Z,3.75
2022-08-25T04:27:18.130Z,5.53
2022-08-25T04:29:45.621Z,2.72
2022-08-25T04:32:13.984Z,3.70
2022-08-25T04:34:42.021Z,9.90
2022-08-25T04:37:09.607Z,3.95
2022-08-25T04:39:37.126Z,4.13
2022-08-25T04:42:04.730Z,7.53
2022-08-25T04:44:32.366Z,11.18
2022-08-25T04:47:00.190Z,3.67
2022-08-25T04:49:28.229Z,5.65
2022-08-25T04:51:57.509Z,3.60
2022-08-25T04:54:25.102Z,7.85
2022-08-25T04:56:58.350Z,13.00
2022-08-25T04:59:29.954Z,3.47
2022-08-25T05:01:59.475Z,3.30
2022-08-25T05:04:28.474Z,6.45
2022-08-25T05:06:57.137Z,4.63
2022-08-25T05:09:25.260Z,3.63
2022-08-25T05:11:53.566Z,3.78
2022-08-25T05:14:25.631Z,5.47
2022-08-25T05:16:54.460Z,6.97
2022-08-25T05:19:22.403Z,6.80
2022-08-25T05:21:49.887Z,5.32
2022-08-25T05:24:17.642Z,6.40
2022-08-25T05:26:45.161Z,6.57
2022-08-25T05:29:12.694Z,6.82
2022-08-25T05:31:44.039Z,13.20
2022-08-25T05:34:13.601Z,6.63
2022-08-25T05:36:43.592Z,4.45
2022-08-25T05:39:11.518Z,4.47
2022-08-25T05:41:39.113Z,4.43
2022-08-25T05:44:06.594Z,9.57
2022-08-25T05:46:34.390Z,6.70
2022-08-25T05:49:02.108Z,9.00
2022-08-25T05:51:29.589Z,11.30
2022-08-25T05:53:57.209Z,8.15
2022-08-25T05:56:24.774Z,4.65
2022-08-25T05:58:52.269Z,5.13
2022-08-25T06:01:43.481Z,9.57
2022-08-25T06:04:13.346Z,4.07
2022-08-25T06:06:41.383Z,6.63
2022-08-25T06:09:09.761Z,10.27
2022-08-25T06:11:38.201Z,8.25
2022-08-25T06:14:05.860Z,10.27
2022-08-25T06:16:33.578Z,6.40
2022-08-25T06:19:01.442Z,5.28
2022-08-25T06:21:29.286Z,3.35
2022-08-25T06:23:56.972Z,8.35
2022-08-25T06:26:25.049Z,6.07
2022-08-25T06:28:52.985Z,8.65
2022-08-25T06:31:22.468Z,9.57
2022-08-25T06:33:51.035Z,4.40
2022-08-25T06:36:19.372Z,2.53
2022-08-25T06:38:47.283Z,9.55
2022-08-25T06:41:16.687Z,7.45
2022-08-25T06:43:48.981Z,8.10
2022-08-25T06:46:21.931Z,2.33
2022-08-25T06:49:03.189Z,3.90
2022-08-25T06:51:30.766Z,10.43
2022-08-25T06:53:58.327Z,5.82
2022-08-25T06:56:26.693Z,5.47
2022-08-25T06:58:54.246Z,7.68
2022-08-25T07:01:26.200Z,5.03
2022-08-25T07:03:59.251Z,6.13
2022-08-25T07:06:27.963Z,6.70
2022-08-25T07:08:55.683Z,6.93
2022-08-25T07:11:23.423Z,10.18
2022-08-25T07:13:51.411Z,3.58
2022-08-25T07:16:20.589Z,7.97
2022-08-25T07:18:49.406Z,11.00
2022-08-25T07:21:18.775Z,8.85
2022-08-25T07:23:48.187Z,5.22
2022-08-25T07:29:07.488Z,5.43
2022-08-25T07:31:35.215Z,6.85
2022-08-25T07:34:21.719Z,9.45
2022-08-25T07:39:17.638Z,14.10
2022-08-25T07:41:51.901Z,6.57
2022-08-25T07:44:20.426Z,7.50
2022-08-25T07:46:48.528Z,7.43
2022-08-25T07:49:18.070Z,9.65
2022-08-25T07:52:03.951Z,9.95
2022-08-25T07:54:34.762Z,8.15
2022-08-25T07:57:03.654Z,8.95
2022-08-25T07:59:39.878Z,7.72
2022-08-25T08:02:16.011Z,12.60
2022-08-25T08:04:48.842Z,7.45
2022-08-25T08:07:17.884Z,3.85
2022-08-25T08:09:45.592Z,6.25
2022-08-25T08:12:13.363Z,8.15
2022-08-25T08:14:45.110Z,2.63
2022-08-25T08:17:13.909Z,6.93
2022-08-25T08:19:44.857Z,5.13
2022-08-25T08:22:15.689Z,13.07
2022-08-25T08:24:56.174Z,4.55
2022-08-25T08:27:24.899Z,4.95
2022-08-25T08:29:56.072Z,8.98
2022-08-25T08:32:31.504Z,12.13
2022-08-25T08:35:11.609Z,5.50
2022-08-25T08:37:42.172Z,9.55
2022-08-25T08:40:10.953Z,8.88
2022-08-25T08:42:52.858Z,9.38
2022-08-25T08:45:27.024Z,6.38
2022-08-25T08:48:13.210Z,12.23
2022-08-25T08:50:41.053Z,5.32
2022-08-25T08:53:15.767Z,10.75
2022-08-25T08:55:52.682Z,10.05
2022-08-25T08:58:26.140Z,10.02
2022-08-25T09:00:56.133Z,15.75
2022-08-25T09:03:34.988Z,11.30
2022-08-25T09:06:12.984Z,6.75
2022-08-25T09:08:44.980Z,20.42
2022-08-25T09:11:31.304Z,18.02
2022-08-25T09:14:07.662Z,30.85
2022-08-25T09:16:53.731Z,50.13
2022-08-25T09:19:42.327Z,34.03
2022-08-25T09:22:35.164Z,64.30
2022-08-25T09:25:08.345Z,31.05
2022-08-25T09:27:58.563Z,33.17
2022-08-25T09:30:34.322Z,42.05
2022-08-25T09:33:05.486Z,27.48
2022-08-25T09:35:37.624Z,32.50
2022-08-25T09:38:06.798Z,46.83
2022-08-25T09:40:51.746Z,23.08
2022-08-25T09:43:29.571Z,14.23
2022-08-25T09:46:23.119Z,12.57
2022-08-25T09:48:59.475Z,27.00
2022-08-25T09:51:43.016Z,23.05
2022-08-25T09:54:14.029Z,20.25
2022-08-25T09:56:50.553Z,14.32
2022-08-25T09:59:34.337Z,23.40
2022-08-25T10:02:21.445Z,8.77
2022-08-25T10:04:49.502Z,19.67
2022-08-25T10:07:38.331Z,19.98
2022-08-25T10:10:16.791Z,21.23
2022-08-25T10:12:51.592Z,24.67
2022-08-25T10:15:30.365Z,16.20
2022-08-25T10:18:17.554Z,13.65
2022-08-25T10:20:47.178Z,20.80
2022-08-25T10:23:18.208Z,9.38
2022-08-25T10:25:59.387Z,13.48
2022-08-25T10:28:30.668Z,14.02
2022-08-25T10:31:01.515Z,13.93
2022-08-25T10:33:36.421Z,39.05
2022-08-25T10:36:21.254Z,22.27
2022-08-25T10:39:01.576Z,26.65
2022-08-25T10:41:35.886Z,18.58
2022-08-25T10:44:41.026Z,20.70
2022-08-25T10:47:27.219Z,21.17
2022-08-25T10:50:06.193Z,16.63
2022-08-25T10:52:39.762Z,27.52
2022-08-25T10:55:08.549Z,18.35
2022-08-25T10:57:40.783Z,13.68
2022-08-25T11:00:13.634Z,18.33
2022-08-25T11:02:41.511Z,9.40
2022-08-25T11:05:25.681Z,16.50
2022-08-25T11:08:13.069Z,13.40
2022-08-25T11:10:47.898Z,14.73
2022-08-25T11:13:23.785Z,12.45
2022-08-25T11:18:45.671Z,15.25
2022-08-25T11:21:17.694Z,12.40
2022-08-25T11:23:48.870Z,10.90
2022-08-25T11:26:20.372Z,11.50
2022-08-25T11:28:48.274Z,10.20
2022-08-25T11:31:16.418Z,11.85
2022-08-25T11:33:44.238Z,8.02
2022-08-25T11:36:29.670Z,7.13
2022-08-25T11:39:07.790Z,11.07
2022-08-25T11:41:54.091Z,7.65
2022-08-25T11:44:51.888Z,7.25
2022-08-25T11:47:40.215Z,15.00
2022-08-25T11:50:30.150Z,15.10
2022-08-25T11:53:28.145Z,10.15
2022-08-25T11:56:05.765Z,10.95
2022-08-25T11:58:33.298Z,8.18
2022-08-25T12:01:02.931Z,7.45
2022-08-25T12:03:34.173Z,16.08
2022-08-25T12:06:17.155Z,12.05
2022-08-25T12:09:06.213Z,8.60
2022-08-25T12:11:39.915Z,10.10
2022-08-25T12:14:16.820Z,14.85
2022-08-25T12:16:44.550Z,15.63
2022-08-25T12:19:31.174Z,13.48
2022-08-25T12:22:03.193Z,13.05
2022-08-25T12:24:48.309Z,17.92
2022-08-25T12:27:39.515Z,15.85
2022-08-25T12:30:18.375Z,13.10
